Flight Track Log - Related Links

Times and Time Zones

All times are in EDT time to prevent confusion due to time zone crossing. See the TCF3494 flight status page for this flight to view local times or setup timezone preferences in your user account.


Time Position Orientation Groundspeed Altitude Reporting Facility
EDT Latitude Longitude Course Direction KTS MPH feet Rate Location/Type
Sat 04:40:11 PM 35.8319 -78.8611 228° Southwest 202 232 3,100  Level Washington Center
Sat 04:41:11 PM 35.8294 -78.9506 268° West 283 326 5,700 2,769 Climbing Washington Center
Sat 04:41:29 PM 35.8328 -78.9764 279° West 276 318 6,700 3,395 Climbing Washington Center
Sat 04:42:00 PM 35.8368 -79.2489 263° West  Level FlightAware Approximate
Sat 04:42:27 PM 35.8322 -79.0686 270° West 283 326 10,000  Level Washington Center
Sat 04:43:00 PM 35.8261 -79.3652 262° West  Level FlightAware Approximate
Sat 04:43:28 PM 35.8336 -79.1661 271° West 288 331 12,000  Level Washington Center
Sat 04:44:00 PM 35.8167 -79.4815 270° West  Level FlightAware Approximate
Sat 04:44:29 PM 35.8367 -79.2686 272° West 315 362 14,300  Level Washington Center
Sat 04:45:27 PM 35.8289 -79.3886 265° West 327 376 16,700 2,098 Climbing Washington Center
Sat 04:47:32 PM 35.7981 -79.6403 261° West 347 399 20,700 1,812 Climbing Atlanta Center
Sat 04:49:32 PM 35.7581 -79.8753 258° West 371 427 24,100 1,567 Climbing Atlanta Center
Sat 04:50:32 PM 35.7378 -80.0094 259° West 385 443 25,400 1,450 Climbing Atlanta Center
Sat 04:51:32 PM 35.7689 -80.1383 287° West 391 450 27,000 1,400 Climbing Atlanta Center
Sat 04:52:32 PM 35.8122 -80.2539 295° West 391 450 28,200 1,150 Climbing Atlanta Center
Sat 04:53:32 PM 35.8625 -80.4003 293° West 410 472 29,300 1,000 Climbing Atlanta Center
Sat 04:54:32 PM 35.9103 -80.5339 294° West 421 484 30,200 900 Climbing Atlanta Center
Sat 04:55:32 PM 35.9578 -80.6731 293° West 436 502 31,100 1,000 Climbing Atlanta Center
Sat 04:56:32 PM 36.0053 -80.8097 293° West 441 507 32,200 1,100 Climbing Atlanta Center
Sat 04:57:32 PM 36.0506 -80.9492 292° West 441 507 33,300 900 Climbing Atlanta Center
Sat 04:58:32 PM 36.1142 -81.0728 303° West 428 493 34,000 350 Climbing Atlanta Center
Sat 04:59:32 PM 36.2044 -81.1878 314° West 428 493 34,000  Level Atlanta Center
Sat 05:00:32 PM 36.2903 -81.2928 315° West 428 493 34,000  Level Atlanta Center
Sat 05:01:32 PM 36.3761 -81.3983 315° West 428 493 34,000  Level Atlanta Center
Sat 05:02:32 PM 36.4617 -81.5039 315° West 428 493 34,000  Level Atlanta Center
Sat 05:03:32 PM 36.5450 -81.6044 316° Northwest 423 487 34,000  Level Atlanta Center
Sat 05:04:32 PM 36.6306 -81.7106 315° West 428 493 34,000  Level Atlanta Center
Sat 05:06:56 PM 36.8264 -81.9511 316° Northwest 435 501 34,000  Level Indianapolis Center
Sat 05:07:57 PM 36.9114 -82.0578 315° West 434 499 34,000  Level Indianapolis Center
Sat 05:08:58 PM 37.0114 -82.1836 315° West 437 503 34,000  Level Indianapolis Center
Sat 05:09:59 PM 37.0981 -82.2914 315° West 440 506 34,000  Level Indianapolis Center
Sat 05:11:00 PM 37.1839 -82.3997 315° West 440 506 34,000  Level Indianapolis Center
Sat 05:12:02 PM 37.2703 -82.5089 315° West 443 510 34,000  Level Indianapolis Center
Sat 05:13:03 PM 37.3561 -82.6194 314° West 444 511 34,000  Level Indianapolis Center
Sat 05:14:04 PM 37.4419 -82.7286 315° West 442 509 34,000  Level Indianapolis Center
Sat 05:15:05 PM 37.5281 -82.8381 315° West 441 507 34,000  Level Indianapolis Center
Sat 05:16:06 PM 37.6278 -82.9683 314° West 442 509 34,000  Level Indianapolis Center
Sat 05:17:08 PM 37.7142 -83.0775 315° West 440 506 34,000  Level Indianapolis Center
Sat 05:18:09 PM 37.7997 -83.1892 314° West 442 509 34,000  Level Indianapolis Center
Sat 05:19:10 PM 37.8939 -83.2853 321° Northwest 437 503 34,000  Level Indianapolis Center
Sat 05:20:11 PM 38.0050 -83.3561 333° Northwest 444 511 34,000  Level Indianapolis Center
Sat 05:21:12 PM 38.1156 -83.4247 334° Northwest 444 511 34,000  Level Indianapolis Center
Sat 05:22:14 PM 38.2281 -83.4914 335° Northwest 444 511 34,000  Level Indianapolis Center
Sat 05:23:15 PM 38.3272 -83.5814 325° Northwest 438 504 34,000  Level Indianapolis Center
Sat 05:24:16 PM 38.4067 -83.7019 310° West 442 509 34,000  Level Indianapolis Center
Sat 05:25:18 PM 38.4994 -83.8417 310° West 443 510 34,000  Level Indianapolis Center
Sat 05:26:19 PM 38.5797 -83.9589 311° West 440 506 34,000  Level Indianapolis Center
Sat 05:27:20 PM 38.6592 -84.0783 310° West 443 510 34,000  Level Indianapolis Center
Sat 05:28:21 PM 38.7411 -84.2000 311° West 444 511 34,000  Level Indianapolis Center
Sat 05:29:23 PM 38.8211 -84.3228 310° West 443 510 34,000 -244 Level Indianapolis Center
Sat 05:30:24 PM 38.8989 -84.4383 311° West 426 490 33,500 -541 Descending Indianapolis Center
Sat 05:31:25 PM 38.9692 -84.5444 310° West 389 448 32,900 -780 Descending Indianapolis Center
Sat 05:32:27 PM 39.0369 -84.6469 310° West 375 432 31,900 -927 Descending Indianapolis Center
Sat 05:33:28 PM 39.1044 -84.7500 310° West 371 427 31,000 -934 Descending Indianapolis Center
Sat 05:34:29 PM 39.1719 -84.8525 310° West 371 427 30,000 -927 Descending Indianapolis Center
Sat 05:35:31 PM 39.2519 -84.9372 321° Northwest 381 438 29,100 -927 Descending Indianapolis Center
Sat 05:36:32 PM 39.3467 -84.9931 335° Northwest 376 433 28,100 -541 Descending Indianapolis Center
Sat 05:37:33 PM 39.4394 -85.0483 335° Northwest 374 430 28,000 -49 Descending Indianapolis Center
Sat 05:38:34 PM 39.5294 -85.1014 336° Northwest 362 417 28,000  Level Indianapolis Center
Sat 05:39:36 PM 39.6386 -85.1664 335° Northwest 362 417 28,000  Level Indianapolis Center
Sat 05:40:37 PM 39.7297 -85.2208 335° Northwest 362 417 28,000 -197 Level Indianapolis Center
Sat 05:41:38 PM 39.8222 -85.2744 336° Northwest 366 421 27,600 -732 Descending Indianapolis Center
Sat 05:42:40 PM 39.9094 -85.3275 335° Northwest 355 409 26,500 -780 Descending Indianapolis Center
Sat 05:43:41 PM 39.9922 -85.3767 336° Northwest 335 386 26,000 -244 Descending Indianapolis Center
Sat 05:44:43 PM 40.0753 -85.4275 335° Northwest 333 383 26,000  Level Indianapolis Center
Sat 05:45:44 PM 40.1592 -85.4772 336° Northwest 333 383 26,000  Level Indianapolis Center
Sat 05:46:45 PM 40.2594 -85.5378 335° Northwest 333 383 26,000  Level Indianapolis Center
Sat 05:47:47 PM 40.3431 -85.5886 335° Northwest 332 382 26,000  Level Indianapolis Center
Sat 05:48:48 PM 40.4272 -85.6389 336° Northwest 334 384 26,000  Level Indianapolis Center
Sat 05:49:04 PM 40.4439 -85.6486 336° Northwest 333 383 26,000  Level Chicago Center
Sat 05:50:06 PM 40.5333 -85.6925 340° North 344 396 26,000  Level Chicago Center
Sat 05:51:07 PM 40.6442 -85.7372 343° North 349 402 26,000  Level Chicago Center
Sat 05:52:08 PM 40.7394 -85.7742 344° North 350 403 26,000  Level Chicago Center
Sat 05:53:10 PM 40.8128 -85.8364 327° Northwest 326 375 26,000  Level Chicago Center
Sat 05:54:11 PM 40.8039 -85.9278 263° West 269 310 26,000  Level Chicago Center
Sat 05:55:13 PM 40.7411 -85.9594 201° Southwest 259 298 26,000  Level Chicago Center
Sat 05:56:14 PM 40.6694 -85.9325 164° South 281 323 26,000  Level Chicago Center
Sat 05:57:16 PM 40.5956 -85.9006 162° South 281 323 26,000  Level Chicago Center
Sat 05:58:17 PM 40.5267 -85.8489 150° Southeast 310 357 26,000  Level Chicago Center
Sat 05:59:21 PM 40.5689 -85.7178 67° East 384 442 26,000  Level Chicago Center
Sat 06:00:23 PM 40.6650 -85.7453 348° North 357 411 26,000  Level Chicago Center
Sat 06:01:24 PM 40.7608 -85.7828 343° North 349 402 26,000  Level Chicago Center
Sat 06:02:26 PM 40.8197 -85.8583 316° Northwest 313 360 26,000  Level Chicago Center
Sat 06:03:27 PM 40.7936 -85.9433 248° West 264 304 26,000  Level Chicago Center
Sat 06:04:29 PM 40.7219 -85.9519 185° South 267 307 26,000  Level Chicago Center
Sat 06:05:30 PM 40.6386 -85.9208 164° South 272 313 26,000  Level Chicago Center
Sat 06:06:31 PM 40.5642 -85.8894 162° South 278 320 26,000  Level Chicago Center
Sat 06:07:33 PM 40.5203 -85.7981 122° Southeast 330 380 26,000  Level Chicago Center
Sat 06:08:34 PM 40.5919 -85.7158 41° Northeast 384 442 26,000  Level Chicago Center
Sat 06:09:36 PM 40.6892 -85.7522 344° North 352 405 26,000  Level Chicago Center
Sat 06:10:37 PM 40.7817 -85.7914 342° North 349 402 26,000  Level Chicago Center
Sat 06:11:38 PM 40.8203 -85.8828 299° West 297 342 26,000  Level Chicago Center
Sat 06:12:40 PM 40.7789 -85.9539 232° Southwest 248 285 26,000  Level Chicago Center
Sat 06:13:41 PM 40.7067 -85.9469 176° South 272 313 26,000  Level Chicago Center
Sat 06:14:43 PM 40.6228 -85.9122 163° South 280 322 26,000  Level Chicago Center
Sat 06:15:44 PM 40.5489 -85.8808 162° South 280 322 26,000  Level Chicago Center
Sat 06:16:46 PM 40.5247 -85.7669 106° East 363 418 26,000  Level Chicago Center
Sat 06:17:47 PM 40.6125 -85.7208 22° Northeast 372 428 26,000  Level Chicago Center
Sat 06:18:48 PM 40.7100 -85.7617 342° North 352 405 26,000  Level Chicago Center
Sat 06:19:50 PM 40.7986 -85.8094 338° Northwest 350 403 26,000  Level Chicago Center
Sat 06:20:51 PM 40.8133 -85.9033 282° West 282 325 26,000  Level Chicago Center
Sat 06:21:52 PM 40.7572 -85.9533 214° Southwest 258 297 26,000  Level Chicago Center
Sat 06:22:54 PM 40.6753 -85.9269 166° South 274 315 26,000  Level Chicago Center
Sat 06:23:55 PM 40.5981 -85.8933 162° South 286 329 26,000  Level Chicago Center
Sat 06:24:57 PM 40.5311 -85.8419 150° Southeast 290 334 26,000  Level Chicago Center
Sat 06:25:58 PM 40.5556 -85.7264 74° East 367 422 26,000  Level Chicago Center
Sat 06:26:59 PM 40.6508 -85.7381 355° North 359 413 26,000  Level Chicago Center
Sat 06:28:01 PM 40.7497 -85.7783 343° North 349 402 26,000  Level Chicago Center
Sat 06:29:03 PM 40.8153 -85.8456 322° Northwest 309 356 26,000  Level Chicago Center
Sat 06:30:04 PM 40.7964 -85.9339 254° West 262 302 26,000  Level Chicago Center
Sat 06:31:05 PM 40.7292 -85.9511 191° South 257 296 26,000  Level Chicago Center
Sat 06:32:06 PM 40.6478 -85.9153 162° South 279 321 26,000  Level Chicago Center
Sat 06:33:08 PM 40.5731 -85.8844 163° South 281 323 26,000  Level Chicago Center
Sat 06:34:09 PM 40.5233 -85.8003 128° Southeast 333 383 26,000  Level Chicago Center
Sat 06:35:11 PM 40.5847 -85.6933 53° Northeast 403 464 26,000  Level Chicago Center
Sat 06:36:12 PM 40.7094 -85.6917 North 420 483 26,000  Level Chicago Center
Sat 06:37:13 PM 40.8244 -85.6361 20° North 437 503 26,000  Level Chicago Center
Sat 06:38:15 PM 40.9389 -85.5825 19° North 438 504 26,000  Level Chicago Center
Sat 06:39:16 PM 41.0539 -85.5283 20° North 440 506 26,000 -49 Level Chicago Center
Sat 06:40:17 PM 41.1703 -85.5528 351° North 422 486 25,900 -439 Descending Chicago Center
Sat 06:41:19 PM 41.2925 -85.5933 346° North 447 514 25,100 -780 Descending Chicago Center
Sat 06:42:20 PM 41.4144 -85.6314 347° North 447 514 24,300 -537 Descending Chicago Center
Sat 06:43:22 PM 41.5347 -85.6719 346° North 441 507 24,000 -146 Descending Chicago Center
Sat 06:44:23 PM 41.6578 -85.7111 347° North 445 512 24,000  Level Chicago Center
Sat 06:45:24 PM 41.8042 -85.7589 346° North 445 512 24,000  Level Chicago Center
Sat 06:46:26 PM 41.9242 -85.7981 346° North 442 509 24,000  Level Chicago Center
Sat 06:47:27 PM 42.0347 -85.8358 346° North 445 512 24,000  Level Chicago Center
Sat 06:48:29 PM 42.1600 -85.8764 347° North 458 527 24,000  Level Chicago Center
Sat 06:49:30 PM 42.2886 -85.9186 346° North 472 543 24,000  Level Chicago Center
Sat 06:50:31 PM 42.4164 -85.9592 347° North 473 544 24,000 -98 Level Chicago Center
Sat 06:51:33 PM 42.5650 -86.0275 341° North 478 550 23,800 -488 Descending Chicago Center
Sat 06:52:34 PM 42.6033 -86.1664 291° West 403 464 23,000 -732 Descending Chicago Center
Sat 06:53:36 PM 42.5914 -86.3064 263° West 374 430 22,300 -1,073 Descending Chicago Center
Sat 06:54:37 PM 42.5611 -86.4306 252° West 352 405 20,800 -1,610 Descending Chicago Center
Sat 06:55:39 PM 42.5314 -86.5550 252° West 348 400 19,000 -1,805 Descending Chicago Center
Sat 06:56:40 PM 42.4994 -86.6914 252° West 339 390 17,100 -1,659 Descending Chicago Center
Sat 06:57:42 PM 42.4728 -86.7964 251° West 339 390 15,600 -1,561 Descending Chicago Center
Sat 06:58:43 PM 42.4442 -86.9133 252° West 330 380 13,900 -1,623 Descending Chicago Center
Sat 06:59:44 PM 42.4186 -87.0211 252° West 307 353 12,300 -1,756 Descending Chicago Center
Sat 07:00:46 PM 42.3867 -87.1414 250° West 284 327 10,300 -1,610 Descending Chicago Center
Sat 07:01:47 PM 42.3633 -87.2383 252° West 273 314 9,000 -976 Descending Chicago Center
Sat 07:02:49 PM 42.3608 -87.3400 268° West 271 312 8,300 -927 Descending Chicago Center
Sat 07:03:50 PM 42.3567 -87.4378 267° West 265 305 7,100 -634 Descending Chicago Center
Sat 07:04:52 PM 42.3203 -87.5333 243° Southwest 266 306 7,000 -98 Descending Chicago Center
Sat 07:05:53 PM 42.2672 -87.5956 221° Southwest 256 295 6,900 -537 Descending Chicago Center
Sat 07:06:55 PM 42.2131 -87.6567 220° Southwest 254 292 5,900 -1,024 Descending Chicago Center
Sat 07:07:56 PM 42.1592 -87.7164 219° Southwest 252 290 4,800 -1,180 Descending Chicago Center
Sat 07:08:57 PM 42.1103 -87.7742 221° Southwest 244 281 3,500 -1,171 Descending Chicago Center
Sat 07:09:59 PM 42.0636 -87.8258 219° Southwest 232 267 2,400 -1,065 Descending Chicago Center

Login

Don't have an account? Register now (free) for customized features, flight alerts, and more!